Time;durP1;ratioP1;P1;durP2;ratioP2;P2;SDS_P1;SDS_P2;PMS_P1;PMS_P2;Temp;Humidity;BMP_temperature;BMP_pressure;BME280_temperature;BME280_humidity;BME280_pressure;Samples;Min_cycle;Max_cycle;Signal;HPM_P1;HPM_P2
2022/05/18 00:00:58;;;;;;;;;;;;;;;29.06;36.67;94613.88;4965825;28;8413;-61
2022/05/18 00:03:36;;;;;;;;;;;;;;;29.03;36.36;94609.41;4949894;28;7272;-61
2022/05/18 00:06:15;;;;;;;;;;;;;;;29.03;36.78;94611.41;4937831;28;9010;-61
2022/05/18 00:08:42;;;;;;;;;;;;;;;29.03;36.44;94612.19;4937609;28;7370;-61
2022/05/18 00:11:15;;;;;;;;;;;;;;;29.03;36.52;94619.72;4943440;28;7062;-61
2022/05/18 00:14:10;;;;;;;;;;;;;;;29.02;36.67;94613.44;4967603;28;7246;-61
2022/05/18 00:16:54;;;;;;;;;;;;;;;29.01;36.18;94616.75;4917484;29;9363;-61
2022/05/18 00:19:22;;;;;;;;;;;;;;;29.00;36.61;94618.75;4931582;29;8802;-61
2022/05/18 00:22:14;;;;;;;;;;;;;;;28.99;36.70;94617.25;4916744;29;7349;-60
2022/05/18 00:24:42;;;;;;;;;;;;;;;28.98;36.87;94624.06;4923304;28;8681;-61
2022/05/18 00:27:15;;;;;;;;;;;;;;;28.99;36.40;94627.59;4933114;28;7243;-60
2022/05/18 00:30:06;;;;;;;;;;;;;;;28.99;36.55;94628.31;4916087;29;7231;-61
2022/05/18 00:33:03;;;;;;;;;;;;;;;28.99;36.51;94622.78;4922740;29;9099;-61
2022/05/18 00:35:41;;;;;;;;;;;;;;;28.95;36.80;94619.59;4937078;28;8739;-61
2022/05/18 00:38:10;;;;;;;;;;;;;;;28.95;36.41;94616.81;4932460;29;7612;-60
2022/05/18 00:40:49;;;;;;;;;;;;;;;28.93;36.65;94619.38;4902049;29;8531;-60
2022/05/18 00:43:44;;;;;;;;;;;;;;;28.94;36.68;94609.81;4917451;29;7273;-61
2022/05/18 00:46:18;;;;;;;;;;;;;;;28.94;36.82;94620.88;4929826;29;7248;-61
2022/05/18 00:48:44;;;;;;;;;;;;;;;28.94;36.82;94614.59;4929150;29;6977;-60
2022/05/18 00:51:19;;;;;;;;;;;;;;;28.94;36.46;94609.03;4934253;28;8851;-61
2022/05/18 00:53:55;;;;;;;;;;;;;;;28.91;36.48;94616.38;4945051;28;7204;-60
2022/05/18 00:56:46;;;;;;;;;;;;;;;28.92;36.44;94611.59;4935944;28;8729;-61
2022/05/18 00:59:20;;;;;;;;;;;;;;;28.93;36.50;94615.84;4948277;28;9177;-61
2022/05/18 01:01:48;;;;;;;;;;;;;;;28.92;36.31;94606.81;4942938;28;7128;-61
2022/05/18 01:04:28;;;;;;;;;;;;;;;28.94;36.51;94617.34;4937079;28;9056;-61
2022/05/18 01:07:13;;;;;;;;;;;;;;;28.93;36.37;94607.53;4941385;28;7386;-61
2022/05/18 01:10:03;;;;;;;;;;;;;;;28.92;36.57;94611.59;4955557;28;7265;-61
2022/05/18 01:12:29;;;;;;;;;;;;;;;28.91;36.09;94610.84;4944980;28;8850;-61
2022/05/18 01:15:22;;;;;;;;;;;;;;;28.91;36.52;94619.16;4924284;28;7518;-60
2022/05/18 01:18:05;;;;;;;;;;;;;;;28.88;36.48;94617.44;4897537;29;7283;-61
2022/05/18 01:20:45;;;;;;;;;;;;;;;28.90;36.58;94614.16;4916492;29;9732;-61
2022/05/18 01:23:29;;;;;;;;;;;;;;;28.90;36.40;94616.91;4901109;29;7356;-61
2022/05/18 01:26:37;;;;;;;;;;;;;;;28.89;36.28;94616.16;4922589;29;7413;-61
2022/05/18 01:29:14;;;;;;;;;;;;;;;28.88;36.42;94620.19;4895945;29;7533;-61
2022/05/18 01:31:49;;;;;;;;;;;;;;;28.86;36.26;94625.50;4909867;29;7406;-61
2022/05/18 01:34:28;;;;;;;;;;;;;;;28.85;36.24;94617.75;4922543;29;7620;-61
2022/05/18 01:36:54;;;;;;;;;;;;;;;28.86;36.92;94622.75;4898929;29;7519;-61
2022/05/18 01:39:48;;;;;;;;;;;;;;;28.87;36.48;94629.03;4912151;29;9102;-61
2022/05/18 01:42:20;;;;;;;;;;;;;;;28.86;36.35;94630.31;4927223;28;7487;-61
2022/05/18 01:44:46;;;;;;;;;;;;;;;28.86;36.41;94631.06;4894911;29;9159;-61
2022/05/18 01:47:14;;;;;;;;;;;;;;;28.85;36.79;94637.88;4913710;29;7270;-61
2022/05/18 01:49:48;;;;;;;;;;;;;;;28.84;36.58;94633.59;4901690;29;7188;-61
2022/05/18 01:52:15;;;;;;;;;;;;;;;28.83;36.60;94637.66;4914508;29;9120;-61
2022/05/18 01:54:46;;;;;;;;;;;;;;;28.85;36.29;94643.41;4915866;28;8618;-61
2022/05/18 01:57:15;;;;;;;;;;;;;;;28.85;36.94;94643.41;4950989;28;8997;-61
2022/05/18 01:59:44;;;;;;;;;;;;;;;28.85;36.31;94648.94;4955581;28;9029;-61
2022/05/18 02:02:17;;;;;;;;;;;;;;;28.83;36.28;94637.66;4935768;28;8984;-61
2022/05/18 02:04:45;;;;;;;;;;;;;;;28.84;36.39;94641.19;4949525;28;9071;-61
2022/05/18 02:07:14;;;;;;;;;;;;;;;28.85;36.47;94645.44;4923157;28;7249;-61
2022/05/18 02:09:41;;;;;;;;;;;;;;;28.85;36.25;94648.94;4927225;28;8814;-61
2022/05/18 02:12:09;;;;;;;;;;;;;;;28.84;36.35;94655.75;4930473;28;8763;-61
2022/05/18 02:14:39;;;;;;;;;;;;;;;28.82;36.55;94654.78;4961118;28;7662;-61
2022/05/18 02:17:17;;;;;;;;;;;;;;;28.78;36.47;94649.56;4934636;28;7148;-61
2022/05/18 02:19:52;;;;;;;;;;;;;;;28.80;36.39;94649.78;4949760;28;7321;-61
2022/05/18 02:22:29;;;;;;;;;;;;;;;28.80;36.67;94654.56;4954171;28;7287;-61
2022/05/18 02:25:16;;;;;;;;;;;;;;;28.78;36.55;94646.78;4956331;28;7198;-61
2022/05/18 02:27:45;;;;;;;;;;;;;;;28.79;36.83;94648.28;4941481;28;9036;-61
2022/05/18 02:30:22;;;;;;;;;;;;;;;28.77;36.30;94650.84;4957527;28;7316;-61
2022/05/18 02:32:52;;;;;;;;;;;;;;;28.78;36.57;94654.34;4944899;28;7259;-61
2022/05/18 02:35:51;;;;;;;;;;;;;;;28.77;36.51;94653.63;4934029;28;8931;-61
2022/05/18 02:38:46;;;;;;;;;;;;;;;28.76;36.52;94656.88;4899358;29;7367;-61
2022/05/18 02:41:12;;;;;;;;;;;;;;;28.74;36.34;94657.41;4898248;29;6995;-61
2022/05/18 02:44:13;;;;;;;;;;;;;;;28.73;36.64;94666.97;4909582;29;9070;-61
2022/05/18 02:46:39;;;;;;;;;;;;;;;28.75;36.52;94666.47;4855854;29;9539;-61
2022/05/18 02:49:05;;;;;;;;;;;;;;;28.73;36.95;94669.75;4861461;29;9656;-61
2022/05/18 02:51:33;;;;;;;;;;;;;;;28.72;36.45;94670.28;4850474;29;9861;-61
2022/05/18 02:56:05;;;;;;;;;;;;;;;28.73;36.32;94680.09;4845416;29;9439;-61
2022/05/18 02:56:45;;;;;;;;;;;;;;;28.72;36.78;94679.34;4863262;29;7352;-61
2022/05/18 02:59:11;;;;;;;;;;;;;;;28.72;36.58;94686.91;4874568;29;7194;-61
2022/05/18 03:01:49;;;;;;;;;;;;;;;28.70;36.73;94673.59;4869787;29;9270;-61
2022/05/18 03:04:18;;;;;;;;;;;;;;;28.71;36.71;94677.13;4855566;29;9014;-61
2022/05/18 03:07:02;;;;;;;;;;;;;;;28.69;36.50;94680.38;4870598;29;9516;-61
2022/05/18 03:09:30;;;;;;;;;;;;;;;28.68;36.28;94669.84;4852883;29;7198;-61
2022/05/18 03:12:06;;;;;;;;;;;;;;;28.66;36.42;94670.38;4856057;29;7291;-61
2022/05/18 03:14:41;;;;;;;;;;;;;;;28.65;36.15;94682.72;4868955;29;8728;-61
2022/05/18 03:17:09;;;;;;;;;;;;;;;28.66;36.34;94683.47;4887467;29;7179;-61
2022/05/18 03:19:51;;;;;;;;;;;;;;;28.64;36.52;94683.25;4891705;29;9216;-61
2022/05/18 03:25:15;;;;;;;;;;;;;;;28.64;36.53;94689.53;4931494;29;7414;-61
2022/05/18 03:27:44;;;;;;;;;;;;;;;28.63;36.74;94688.03;4915264;29;9582;-61
2022/05/18 03:30:19;;;;;;;;;;;;;;;28.64;36.54;94689.53;4946605;29;7272;-61
2022/05/18 03:32:49;;;;;;;;;;;;;;;28.63;36.63;94690.78;4946343;28;8114;-61
2022/05/18 03:35:35;;;;;;;;;;;;;;;28.63;36.65;94695.56;4965262;28;9069;-61
2022/05/18 03:38:05;;;;;;;;;;;;;;;28.63;36.39;94701.09;4940810;28;7191;-61
2022/05/18 03:40:35;;;;;;;;;;;;;;;28.61;36.54;94704.41;4945390;28;8960;-61
2022/05/18 03:43:18;;;;;;;;;;;;;;;28.59;36.70;94695.13;4914919;29;7968;-61
2022/05/18 03:45:49;;;;;;;;;;;;;;;28.61;36.25;94701.63;4924721;29;9148;-61
2022/05/18 03:48:17;;;;;;;;;;;;;;;28.62;36.40;94702.41;4933351;29;7117;-61
2022/05/18 03:50:47;;;;;;;;;;;;;;;28.61;36.44;94703.66;4940409;29;7238;-61
2022/05/18 03:53:15;;;;;;;;;;;;;;;28.60;36.23;94702.91;4936337;28;7350;-61
2022/05/18 03:55:44;;;;;;;;;;;;;;;28.60;36.57;94705.66;4955854;28;6876;-60
2022/05/18 03:58:12;;;;;;;;;;;;;;;28.60;36.48;94707.72;4951195;28;9202;-61
2022/05/18 04:00:48;;;;;;;;;;;;;;;28.59;36.33;94711.72;4942080;28;9243;-61
2022/05/18 04:03:18;;;;;;;;;;;;;;;28.59;36.30;94711.72;4923040;29;7338;-61
2022/05/18 04:05:48;;;;;;;;;;;;;;;28.58;36.23;94705.44;4931091;29;8979;-61
2022/05/18 04:08:17;;;;;;;;;;;;;;;28.56;36.67;94704.47;4928376;29;7079;-61
2022/05/18 04:10:46;;;;;;;;;;;;;;;28.56;36.61;94712.78;4924647;29;9118;-61
2022/05/18 04:13:21;;;;;;;;;;;;;;;28.55;36.47;94712.00;4949416;28;9045;-61
2022/05/18 04:15:48;;;;;;;;;;;;;;;28.54;36.64;94713.28;4929252;28;8308;-61
2022/05/18 04:18:22;;;;;;;;;;;;;;;28.54;36.28;94706.97;4922273;29;7289;-61
2022/05/18 04:20:50;;;;;;;;;;;;;;;28.55;36.50;94716.78;4961487;28;7541;-61
2022/05/18 04:23:26;;;;;;;;;;;;;;;28.53;36.06;94717.31;4962921;28;9109;-61
2022/05/18 04:25:55;;;;;;;;;;;;;;;28.54;36.56;94712.50;4953293;28;9241;-61
2022/05/18 04:28:22;;;;;;;;;;;;;;;28.54;36.19;94715.28;4939392;28;7250;-61
2022/05/18 04:30:50;;;;;;;;;;;;;;;28.52;36.74;94713.03;4948967;28;9458;-61
2022/05/18 04:33:20;;;;;;;;;;;;;;;28.52;36.48;94718.59;4958351;28;7487;-61
2022/05/18 04:35:50;;;;;;;;;;;;;;;28.49;36.89;94725.19;4946710;28;8850;-61
2022/05/18 04:38:18;;;;;;;;;;;;;;;28.46;36.79;94726.22;4926043;28;8767;-61
2022/05/18 04:40:44;;;;;;;;;;;;;;;28.43;36.47;94735.53;4946441;28;9049;-61
2022/05/18 04:43:12;;;;;;;;;;;;;;;28.43;36.40;94735.53;4931986;28;9126;-61
2022/05/18 04:45:44;;;;;;;;;;;;;;;28.46;36.32;94745.56;4938155;28;9066;-61
2022/05/18 04:48:17;;;;;;;;;;;;;;;28.48;36.28;94740.28;4926653;28;7316;-61
2022/05/18 04:50:44;;;;;;;;;;;;;;;28.49;35.67;94736.25;4934905;28;9153;-61
2022/05/18 04:53:10;;;;;;;;;;;;;;;28.47;36.24;94741.53;4939216;28;9125;-61
2022/05/18 04:55:36;;;;;;;;;;;;;;;28.45;36.31;94741.31;4937628;28;9455;-61
2022/05/18 04:58:03;;;;;;;;;;;;;;;28.46;36.21;94745.56;4943380;28;7412;-60
2022/05/18 05:00:29;;;;;;;;;;;;;;;28.48;36.89;94745.81;4928570;28;9180;-61
2022/05/18 05:02:58;;;;;;;;;;;;;;;28.50;36.29;94751.56;4932800;28;9113;-61
2022/05/18 05:05:28;;;;;;;;;;;;;;;28.53;36.86;94756.06;4949210;28;7650;-62
2022/05/18 05:07:55;;;;;;;;;;;;;;;28.52;36.49;94757.31;4954596;28;8819;-61
2022/05/18 05:10:23;;;;;;;;;;;;;;;28.52;36.48;94759.34;4948641;28;7014;-61
2022/05/18 05:12:59;;;;;;;;;;;;;;;28.49;36.67;94757.63;4932009;28;9422;-61
2022/05/18 05:15:38;;;;;;;;;;;;;;;28.50;36.66;94762.63;4937891;28;9462;-61
2022/05/18 05:18:08;;;;;;;;;;;;;;;28.48;36.40;94759.63;4954702;28;8905;-61
2022/05/18 05:20:36;;;;;;;;;;;;;;;28.46;36.62;94762.19;4935585;28;6991;-59
2022/05/18 05:23:02;;;;;;;;;;;;;;;28.47;36.31;94766.44;4934635;28;8810;-60
2022/05/18 05:25:31;;;;;;;;;;;;;;;28.48;36.52;94767.94;4946853;28;9067;-59
2022/05/18 05:27:58;;;;;;;;;;;;;;;28.47;36.18;94771.97;4938559;28;9014;-60
2022/05/18 05:30:24;;;;;;;;;;;;;;;28.46;35.92;94775.25;4937373;28;7002;-60
2022/05/18 05:32:50;;;;;;;;;;;;;;;28.42;36.33;94775.56;4959234;28;9510;-60
2022/05/18 05:35:17;;;;;;;;;;;;;;;28.40;36.11;94783.63;4938321;28;6990;-59
2022/05/18 05:37:43;;;;;;;;;;;;;;;28.38;36.14;94780.66;4963926;28;9036;-59
2022/05/18 05:40:11;;;;;;;;;;;;;;;28.36;36.49;94783.91;4951916;28;9540;-59
2022/05/18 05:43:07;;;;;;;;;;;;;;;28.38;35.92;94786.19;4958619;28;8854;-59
2022/05/18 05:46:04;;;;;;;;;;;;;;;28.35;36.07;94790.72;4898248;29;9136;-59
2022/05/18 05:48:32;;;;;;;;;;;;;;;28.34;35.97;94794.75;4910223;29;8966;-60
2022/05/18 05:51:00;;;;;;;;;;;;;;;28.34;36.20;94791.22;4901447;29;9399;-59
2022/05/18 05:53:27;;;;;;;;;;;;;;;28.32;35.95;94794.53;4902177;29;7112;-59
2022/05/18 05:55:54;;;;;;;;;;;;;;;28.32;35.85;94796.53;4891470;29;6856;-59
2022/05/18 05:58:22;;;;;;;;;;;;;;;28.36;36.07;94797.03;4890651;29;7421;-59
2022/05/18 06:00:49;;;;;;;;;;;;;;;28.37;35.77;94798.50;4893060;29;9024;-59
2022/05/18 06:03:17;;;;;;;;;;;;;;;28.36;35.64;94797.03;4902359;29;6860;-59
2022/05/18 06:05:44;;;;;;;;;;;;;;;28.39;36.15;94795.97;4893270;29;7315;-59
2022/05/18 06:08:10;;;;;;;;;;;;;;;28.44;36.03;94792.41;4889404;29;8837;-59
2022/05/18 06:10:38;;;;;;;;;;;;;;;28.43;36.10;94796.41;4890226;29;6971;-59
2022/05/18 06:13:09;;;;;;;;;;;;;;;28.41;35.78;94793.41;4890933;29;7810;-60
2022/05/18 06:15:36;;;;;;;;;;;;;;;28.38;35.79;94790.97;4893906;29;8637;-60
2022/05/18 06:18:03;;;;;;;;;;;;;;;28.39;36.27;94793.19;4882134;29;9075;-60
2022/05/18 06:20:30;;;;;;;;;;;;;;;28.39;36.19;94793.19;4891252;29;9218;-60
2022/05/18 06:23:06;;;;;;;;;;;;;;;28.38;36.15;94791.72;4923193;28;8046;-60
2022/05/18 06:25:33;;;;;;;;;;;;;;;28.37;36.28;94795.72;4948349;28;7224;-60
2022/05/18 06:28:08;;;;;;;;;;;;;;;28.38;36.29;94790.97;4942388;28;9187;-59
2022/05/18 06:30:38;;;;;;;;;;;;;;;28.36;36.51;94792.22;4926776;29;9078;-60
2022/05/18 06:33:59;;;;;;;;;;;;;;;28.37;36.77;94790.19;4942581;28;7493;-60
2022/05/18 06:36:25;;;;;;;;;;;;;;;28.36;36.79;94799.78;4949039;28;8648;-60
2022/05/18 06:38:54;;;;;;;;;;;;;;;28.36;36.77;94792.22;4949446;28;9114;-61
2022/05/18 06:41:56;;;;;;;;;;;;;;;28.38;36.48;94788.19;4950933;28;8845;-61
2022/05/18 06:44:31;;;;;;;;;;;;;;;28.37;36.41;94790.19;4891372;29;7185;-61
2022/05/18 06:46:59;;;;;;;;;;;;;;;28.36;36.89;94788.72;4889500;29;9073;-60
2022/05/18 06:49:29;;;;;;;;;;;;;;;28.35;37.00;94787.97;4886020;29;9071;-59
2022/05/18 06:51:58;;;;;;;;;;;;;;;28.34;36.85;94791.97;4897890;29;9687;-60
2022/05/18 06:54:24;;;;;;;;;;;;;;;28.36;36.69;94789.44;4895740;29;7216;-60
2022/05/18 06:56:51;;;;;;;;;;;;;;;28.36;36.66;94777.66;4897756;29;9410;-60
2022/05/18 06:59:19;;;;;;;;;;;;;;;28.36;36.77;94781.16;4889741;29;6968;-60
2022/05/18 07:01:50;;;;;;;;;;;;;;;28.36;36.80;94777.66;4894771;29;9005;-60
2022/05/18 07:04:18;;;;;;;;;;;;;;;28.36;36.79;94783.19;4894860;29;7184;-59
2022/05/18 07:06:45;;;;;;;;;;;;;;;28.37;36.48;94781.91;4884897;29;9143;-60
2022/05/18 07:09:18;;;;;;;;;;;;;;;28.34;36.83;94785.69;4901834;29;9376;-60
2022/05/18 07:11:49;;;;;;;;;;;;;;;28.33;36.62;94787.72;4890781;29;8917;-60
2022/05/18 07:14:20;;;;;;;;;;;;;;;28.36;36.55;94788.72;4901412;29;9190;-60
2022/05/18 07:16:47;;;;;;;;;;;;;;;28.35;36.67;94787.22;4886158;29;9120;-59
2022/05/18 07:19:15;;;;;;;;;;;;;;;28.35;36.59;94787.22;4887067;29;9376;-60
2022/05/18 07:21:41;;;;;;;;;;;;;;;28.35;36.69;94789.97;4945767;29;7337;-60
2022/05/18 07:24:08;;;;;;;;;;;;;;;28.35;36.62;94795.50;4947587;28;7937;-60
2022/05/18 07:26:38;;;;;;;;;;;;;;;28.34;36.69;94791.22;4947812;29;7238;-60
2022/05/18 07:29:08;;;;;;;;;;;;;;;28.36;36.76;94794.25;4941532;29;7500;-60
2022/05/18 07:34:44;;;;;;;;;;;;;;;28.38;36.43;94795.22;4935722;29;9187;-61
2022/05/18 07:37:19;;;;;;;;;;;;;;;28.37;36.71;94790.19;4951573;28;7988;-60
2022/05/18 07:39:50;;;;;;;;;;;;;;;28.37;36.87;94790.19;4922702;29;8918;-60
2022/05/18 07:42:28;;;;;;;;;;;;;;;28.37;36.51;94795.72;4947944;29;8819;-61
2022/05/18 07:44:54;;;;;;;;;;;;;;;28.38;36.67;94797.97;4933020;29;9136;-60
2022/05/18 07:47:30;;;;;;;;;;;;;;;28.35;36.43;94793.50;4931479;29;7480;-59
2022/05/18 07:49:56;;;;;;;;;;;;;;;28.37;36.66;94792.97;4933875;29;9393;-60
2022/05/18 07:52:23;;;;;;;;;;;;;;;28.36;36.76;94792.22;4928981;29;7334;-61
2022/05/18 07:54:49;;;;;;;;;;;;;;;28.38;36.60;94795.22;4936554;28;9121;-60
2022/05/18 07:57:18;;;;;;;;;;;;;;;28.40;36.40;94799.47;4963368;28;7262;-60
2022/05/18 07:59:45;;;;;;;;;;;;;;;28.40;36.49;94797.47;4947238;29;9457;-60
2022/05/18 08:02:12;;;;;;;;;;;;;;;28.39;36.59;94787.66;4943703;29;7287;-60
2022/05/18 08:04:39;;;;;;;;;;;;;;;28.41;36.77;94798.19;4932116;28;7478;-61
2022/05/18 08:07:15;;;;;;;;;;;;;;;28.41;36.56;94795.44;4934599;29;9241;-60
2022/05/18 08:15:12;;;;;;;;;;;;;;;28.41;36.32;94793.41;4946528;28;9403;-61
2022/05/18 08:17:44;;;;;;;;;;;;;;;28.42;36.61;94796.94;4942092;28;7263;-61
2022/05/18 08:20:17;;;;;;;;;;;;;;;28.42;36.70;94797.69;4966848;28;6956;-60
2022/05/18 08:22:44;;;;;;;;;;;;;;;28.42;36.59;94796.94;4964725;28;7389;-60
2022/05/18 08:25:13;;;;;;;;;;;;;;;28.42;36.83;94794.94;4940224;28;7298;-60
2022/05/18 08:27:42;;;;;;;;;;;;;;;28.42;36.77;94788.66;4930141;28;6974;-60
2022/05/18 08:30:15;;;;;;;;;;;;;;;28.42;37.02;94792.16;4965494;28;9261;-60
2022/05/18 08:32:55;;;;;;;;;;;;;;;28.43;36.70;94799.19;4954486;28;7559;-60
2022/05/18 08:35:21;;;;;;;;;;;;;;;28.44;36.77;94788.88;4953395;28;7006;-60
2022/05/18 08:37:51;;;;;;;;;;;;;;;28.43;36.31;94788.13;4935629;28;7041;-61
2022/05/18 08:40:49;;;;;;;;;;;;;;;28.42;36.68;94789.41;4954331;28;7334;-60
2022/05/18 08:43:25;;;;;;;;;;;;;;;28.44;36.61;94789.63;4952152;28;7287;-60
2022/05/18 08:46:23;;;;;;;;;;;;;;;28.45;36.59;94785.56;4941026;28;7330;-61
2022/05/18 08:48:57;;;;;;;;;;;;;;;28.45;36.76;94782.81;4951867;28;7348;-60
2022/05/18 08:51:54;;;;;;;;;;;;;;;28.46;36.48;94786.34;4953854;28;7308;-60
2022/05/18 08:54:43;;;;;;;;;;;;;;;28.45;36.59;94782.81;4938460;28;7535;-60
2022/05/18 08:57:24;;;;;;;;;;;;;;;28.46;36.74;94778.03;4932050;28;8771;-60
2022/05/18 08:59:56;;;;;;;;;;;;;;;28.47;36.47;94771.97;4943430;28;9450;-60
2022/05/18 09:02:32;;;;;;;;;;;;;;;28.47;36.52;94779.53;4966733;28;9077;-60
2022/05/18 09:05:14;;;;;;;;;;;;;;;28.48;36.82;94779.00;4964544;28;9809;-60
2022/05/18 09:08:18;;;;;;;;;;;;;;;28.48;36.38;94775.50;4946739;28;7162;-60
2022/05/18 09:10:55;;;;;;;;;;;;;;;28.47;36.67;94777.50;4939448;28;8172;-60
2022/05/18 09:13:23;;;;;;;;;;;;;;;28.49;41.27;94780.53;4934491;28;7993;-60
2022/05/18 09:16:13;;;;;;;;;;;;;;;28.50;38.90;94773.69;4938124;28;7366;-60
2022/05/18 09:19:25;;;;;;;;;;;;;;;28.50;37.81;94770.19;4952958;28;7664;-60
2022/05/18 09:22:33;;;;;;;;;;;;;;;28.51;37.80;94777.22;4887604;29;7187;-60
2022/05/18 09:25:18;;;;;;;;;;;;;;;28.51;37.40;94780.00;4876342;29;9050;-60
2022/05/18 09:28:33;;;;;;;;;;;;;;;28.50;37.10;94782.00;4875250;29;7849;-60
2022/05/18 09:31:45;;;;;;;;;;;;;;;28.49;37.26;94777.75;4875604;29;9368;-60
2022/05/18 09:34:49;;;;;;;;;;;;;;;28.48;37.42;94776.25;4797259;29;7115;-60
2022/05/18 09:37:40;;;;;;;;;;;;;;;28.49;37.98;94777.00;4801980;29;8677;-60
2022/05/18 09:40:26;;;;;;;;;;;;;;;28.49;38.22;94780.53;4816227;29;9076;-62
2022/05/18 09:43:10;;;;;;;;;;;;;;;28.49;38.33;94775.00;4805618;29;9238;-61
2022/05/18 09:45:49;;;;;;;;;;;;;;;28.51;37.84;94780.00;4805767;29;7125;-60
2022/05/18 09:48:31;;;;;;;;;;;;;;;28.53;38.42;94769.91;4817832;29;9316;-61
2022/05/18 09:50:59;;;;;;;;;;;;;;;28.54;38.53;94771.38;4801002;29;7072;-61
2022/05/18 09:53:26;;;;;;;;;;;;;;;28.56;38.02;94771.63;4817941;29;7291;-60
2022/05/18 09:55:52;;;;;;;;;;;;;;;28.55;38.14;94761.81;4818276;29;7247;-60
2022/05/18 09:58:38;;;;;;;;;;;;;;;28.56;37.99;94766.06;4811879;29;9092;-60
2022/05/18 10:09:49;;;;;;;;;;;;;;;28.59;38.28;94761.56;4874872;29;9736;-60
2022/05/18 10:12:42;;;;;;;;;;;;;;;28.60;38.01;94758.25;4917721;29;9410;-60
2022/05/18 10:15:49;;;;;;;;;;;;;;;28.60;38.16;94752.72;4948187;28;7416;-60
2022/05/18 10:18:42;;;;;;;;;;;;;;;28.61;38.33;94754.22;4923917;28;7274;-60
2022/05/18 10:21:20;;;;;;;;;;;;;;;28.61;38.33;94745.91;4942049;28;7342;-60
2022/05/18 10:23:56;;;;;;;;;;;;;;;28.62;38.22;94750.19;4949915;28;7521;-60
2022/05/18 10:26:36;;;;;;;;;;;;;;;28.64;38.33;94742.13;4935558;28;8133;-60
2022/05/18 10:29:06;;;;;;;;;;;;;;;28.63;38.03;94746.16;4928881;28;7915;-61
2022/05/18 10:31:37;;;;;;;;;;;;;;;28.65;38.21;94740.84;4930579;28;9106;-60
2022/05/18 10:34:17;;;;;;;;;;;;;;;28.66;38.09;94741.59;4930349;28;8984;-60
2022/05/18 10:36:48;;;;;;;;;;;;;;;28.65;38.10;94743.59;4940191;28;6995;-60
2022/05/18 10:39:45;;;;;;;;;;;;;;;28.67;38.25;94735.53;4950033;28;9089;-61
2022/05/18 10:42:26;;;;;;;;;;;;;;;28.68;38.34;94736.28;4934772;28;7059;-61
2022/05/18 10:44:54;;;;;;;;;;;;;;;28.68;38.41;94734.25;4934087;28;7424;-60
2022/05/18 10:47:36;;;;;;;;;;;;;;;28.69;38.22;94727.44;4948355;28;9108;-60
2022/05/18 10:50:26;;;;;;;;;;;;;;;28.70;38.09;94726.19;4943845;28;7271;-60
2022/05/18 10:53:00;;;;;;;;;;;;;;;28.70;38.22;94726.19;4949350;28;9061;-61
2022/05/18 10:55:30;;;;;;;;;;;;;;;28.69;38.00;94721.91;4949095;28;7835;-61
2022/05/18 10:58:05;;;;;;;;;;;;;;;28.71;37.79;94716.59;4948044;28;6991;-61
2022/05/18 11:00:57;;;;;;;;;;;;;;;28.72;37.88;94714.56;4949101;28;9228;-60
2022/05/18 11:04:14;;;;;;;;;;;;;;;28.74;38.05;94712.78;4963765;28;9556;-61
2022/05/18 11:06:47;;;;;;;;;;;;;;;28.74;37.80;94707.25;4941953;28;9702;-60
2022/05/18 11:09:46;;;;;;;;;;;;;;;28.76;38.04;94703.94;4950008;28;7449;-61
2022/05/18 11:12:59;;;;;;;;;;;;;;;28.76;38.12;94703.94;4949650;28;9053;-61
2022/05/18 11:15:41;;;;;;;;;;;;;;;28.73;37.85;94694.66;4947948;28;9094;-60
2022/05/18 11:18:18;;;;;;;;;;;;;;;28.77;37.81;94699.91;4946792;29;7046;-60
2022/05/18 11:21:03;;;;;;;;;;;;;;;28.77;37.90;94706.22;4946747;29;9280;-60
2022/05/18 11:24:06;;;;;;;;;;;;;;;28.78;37.73;94695.88;4950427;28;7913;-60
2022/05/18 11:26:50;;;;;;;;;;;;;;;28.77;37.52;94686.84;4945918;29;6857;-60
2022/05/18 11:29:36;;;;;;;;;;;;;;;28.80;37.54;94682.25;4948521;29;9091;-60
2022/05/18 11:32:22;;;;;;;;;;;;;;;28.81;37.92;94687.28;4934945;29;9289;-60
2022/05/18 11:35:20;;;;;;;;;;;;;;;28.82;37.75;94683.22;4948699;29;7262;-60
2022/05/18 11:38:18;;;;;;;;;;;;;;;28.82;37.50;94676.94;4944172;28;9725;-61
2022/05/18 11:40:50;;;;;;;;;;;;;;;28.84;37.57;94683.44;4907340;29;7263;-62
2022/05/18 11:43:44;;;;;;;;;;;;;;;28.85;37.91;94673.88;4898479;29;8778;-61
2022/05/18 11:46:33;;;;;;;;;;;;;;;28.87;37.76;94679.63;4906137;29;9082;-60
2022/05/18 11:49:09;;;;;;;;;;;;;;;28.88;37.95;94672.06;4885998;29;7527;-60
2022/05/18 11:52:12;;;;;;;;;;;;;;;28.89;37.29;94682.63;4911491;29;9097;-60
2022/05/18 11:55:20;;;;;;;;;;;;;;;28.90;37.31;94667.50;4918924;29;7397;-61
2022/05/18 11:58:03;;;;;;;;;;;;;;;28.91;37.58;94665.47;4893721;29;8863;-61
2022/05/18 12:03:30;;;;;;;;;;;;;;;28.93;37.52;94666.44;4905521;29;9676;-60
2022/05/18 12:06:06;;;;;;;;;;;;;;;28.92;37.28;94659.44;4910117;29;9174;-60
2022/05/18 12:08:50;;;;;;;;;;;;;;;28.94;37.37;94658.88;4898948;29;7256;-61
2022/05/18 12:15:01;;;;;;;;;;;;;;;28.98;37.29;94654.53;4915603;29;9235;-60
2022/05/18 12:17:52;;;;;;;;;;;;;;;28.99;37.30;94647.72;4924615;28;7008;-60
2022/05/18 12:20:44;;;;;;;;;;;;;;;29.00;37.60;94652.00;4942551;28;7552;-60
2022/05/18 12:23:29;;;;;;;;;;;;;;;29.00;37.11;94652.00;4929554;29;9480;-60
2022/05/18 12:25:57;;;;;;;;;;;;;;;29.02;37.17;94648.69;4936744;28;7229;-60
2022/05/18 12:28:44;;;;;;;;;;;;;;;29.03;37.14;94644.66;4935728;29;9095;-61
2022/05/18 12:31:18;;;;;;;;;;;;;;;29.05;37.28;94642.09;4935441;28;7395;-60
2022/05/18 12:33:56;;;;;;;;;;;;;;;29.07;37.49;94639.56;4932244;29;7337;-60
2022/05/18 12:36:43;;;;;;;;;;;;;;;29.08;37.25;94641.78;4945225;28;7051;-60
2022/05/18 12:39:17;;;;;;;;;;;;;;;29.10;37.85;94641.28;4944361;28;9371;-61
2022/05/18 12:41:54;;;;;;;;;;;;;;;29.09;37.49;94637.75;4949432;28;7305;-60
2022/05/18 12:44:42;;;;;;;;;;;;;;;29.10;37.49;94633.69;4930845;28;7495;-61
2022/05/18 12:47:24;;;;;;;;;;;;;;;29.13;37.69;94634.66;4954078;28;8783;-59
2022/05/18 12:50:00;;;;;;;;;;;;;;;29.16;37.46;94638.41;4930519;29;7284;-60
2022/05/18 12:52:48;;;;;;;;;;;;;;;29.16;37.54;94632.84;4960738;28;7506;-61
2022/05/18 12:55:33;;;;;;;;;;;;;;;29.19;37.45;94634.63;4935967;29;7259;-61
2022/05/18 12:58:28;;;;;;;;;;;;;;;29.19;37.38;94645.69;4937035;28;8962;-61
2022/05/18 13:01:11;;;;;;;;;;;;;;;29.21;37.74;94637.59;4946773;28;9088;-61
2022/05/18 13:04:00;;;;;;;;;;;;;;;29.23;37.65;94635.03;4934063;29;8586;-60
2022/05/18 13:06:40;;;;;;;;;;;;;;;29.22;37.35;94633.53;4934541;29;7259;-61
2022/05/18 13:09:25;;;;;;;;;;;;;;;29.25;37.58;94626.94;4949427;28;9566;-61
2022/05/18 13:12:30;;;;;;;;;;;;;;;29.26;37.64;94628.44;4950219;28;7319;-61
2022/05/18 13:15:07;;;;;;;;;;;;;;;29.25;37.40;94624.19;4945948;28;7106;-61
2022/05/18 13:17:45;;;;;;;;;;;;;;;29.28;37.31;94625.88;4949934;28;7246;-62
2022/05/18 13:20:30;;;;;;;;;;;;;;;29.28;37.59;94625.88;4946595;28;6967;-61
2022/05/18 13:23:03;;;;;;;;;;;;;;;29.29;37.29;94616.28;4929561;29;6989;-61
2022/05/18 13:25:43;;;;;;;;;;;;;;;29.30;37.21;94618.53;4932674;29;7951;-60
2022/05/18 13:28:17;;;;;;;;;;;;;;;29.31;37.01;94617.25;4932226;29;7035;-61
2022/05/18 13:30:48;;;;;;;;;;;;;;;29.32;37.23;94606.94;4950327;28;9155;-61
2022/05/18 13:33:34;;;;;;;;;;;;;;;29.33;37.17;94605.66;4935046;28;7234;-60
2022/05/18 13:36:06;;;;;;;;;;;;;;;29.35;37.38;94603.09;4939080;28;8358;-60
2022/05/18 13:38:41;;;;;;;;;;;;;;;29.35;37.27;94603.09;4934688;29;9088;-61
2022/05/18 13:41:12;;;;;;;;;;;;;;;29.37;37.42;94604.06;4950347;28;7208;-60
2022/05/18 13:43:44;;;;;;;;;;;;;;;29.38;36.68;94597.25;4923179;28;7505;-60
2022/05/18 13:46:30;;;;;;;;;;;;;;;29.37;37.33;94601.28;4925171;28;9089;-60
2022/05/18 13:49:02;;;;;;;;;;;;;;;29.39;36.79;94607.03;4933576;29;9198;-60
2022/05/18 13:51:39;;;;;;;;;;;;;;;29.38;36.90;94586.16;4949971;28;9077;-60
2022/05/18 13:54:14;;;;;;;;;;;;;;;29.42;37.33;94592.13;4935058;28;7306;-60
2022/05/18 13:56:49;;;;;;;;;;;;;;;29.43;37.28;94590.09;4953081;28;9465;-60
2022/05/18 13:59:30;;;;;;;;;;;;;;;29.45;37.69;94587.56;4949561;28;7274;-60
2022/05/18 14:02:00;;;;;;;;;;;;;;;29.46;36.56;94575.94;4933023;29;7150;-61
2022/05/18 14:04:51;;;;;;;;;;;;;;;29.48;37.28;94578.16;4962853;28;9411;-61
2022/05/18 14:07:21;;;;;;;;;;;;;;;29.50;37.33;94576.34;4927430;29;7364;-60
2022/05/18 14:09:59;;;;;;;;;;;;;;;29.53;36.72;94580.09;4965633;28;7257;-60
2022/05/18 14:12:32;;;;;;;;;;;;;;;29.53;37.32;94574.53;4948138;28;7051;-61
2022/05/18 14:15:02;;;;;;;;;;;;;;;29.55;36.95;94577.53;4948411;28;9713;-61